Time;durP1;ratioP1;P1;durP2;ratioP2;P2;SDS_P1;SDS_P2;PMS_P1;PMS_P2;Temp;Humidity;BMP_temperature;BMP_pressure;BME280_temperature;BME280_humidity;BME280_pressure;Samples;Min_cycle;Max_cycle;Signal;HPM_P1;HPM_P2
2022/01/09 00:02:15;;;;;;;1.63;1.15;;;5.20;80.90;;;;;;7367603;19;20120;-34
2022/01/09 00:04:45;;;;;;;0.50;0.40;;;5.30;81.70;;;;;;7370475;19;20131;-34
2022/01/09 00:07:17;;;;;;;1.00;0.50;;;5.30;80.80;;;;;;7368747;19;20238;-34
2022/01/09 00:09:47;;;;;;;0.38;0.38;;;5.30;78.80;;;;;;7371846;19;20131;-34
2022/01/09 00:12:16;;;;;;;1.38;1.17;;;4.80;80.30;;;;;;7362189;19;20155;-34
2022/01/09 00:14:46;;;;;;;0.32;0.32;;;5.30;80.40;;;;;;7364878;19;20499;-34
2022/01/09 00:17:15;;;;;;;0.95;0.60;;;5.40;80.70;;;;;;7363428;19;20120;-34
2022/01/09 00:19:45;;;;;;;0.82;0.50;;;5.30;81.20;;;;;;7362611;19;20756;-44
2022/01/09 00:22:22;;;;;;;0.52;0.40;;;5.30;80.50;;;;;;7372323;19;20168;-45
2022/01/09 00:24:52;;;;;;;0.50;0.40;;;5.30;82.40;;;;;;7374196;19;20131;-45
2022/01/09 00:27:21;;;;;;;1.35;0.50;;;5.30;81.80;;;;;;7360819;19;21231;-45
2022/01/09 00:29:51;;;;;;;1.33;0.50;;;5.30;82.70;;;;;;7363490;19;20215;-45
2022/01/09 00:32:23;;;;;;;1.13;0.65;;;5.40;82.10;;;;;;7359287;19;20138;-44
2022/01/09 00:34:52;;;;;;;0.65;0.40;;;5.30;81.50;;;;;;7370779;19;20135;-45
2022/01/09 00:37:24;;;;;;;0.40;0.40;;;5.30;84.10;;;;;;7373298;19;20123;-45
2022/01/09 00:39:56;;;;;;;1.00;0.57;;;5.20;83.70;;;;;;7369282;19;20127;-45
2022/01/09 00:42:26;;;;;;;0.43;0.30;;;5.20;86.50;;;;;;7366659;19;20154;-43
2022/01/09 00:44:55;;;;;;;0.50;0.45;;;5.20;85.30;;;;;;7371098;19;20223;-45
2022/01/09 00:47:25;;;;;;;0.45;0.30;;;5.20;84.10;;;;;;7372515;19;20540;-45
2022/01/09 00:49:54;;;;;;;0.35;0.35;;;5.20;84.30;;;;;;7371517;19;20128;-45
2022/01/09 00:52:29;;;;;;;0.30;0.30;;;5.20;85.40;;;;;;7370169;19;20135;-45
2022/01/09 00:54:58;;;;;;;0.32;0.28;;;5.20;85.50;;;;;;7369510;19;20136;-45
2022/01/09 00:57:28;;;;;;;0.30;0.20;;;5.20;85.00;;;;;;7372689;19;20479;-45
2022/01/09 00:59:57;;;;;;;0.68;0.30;;;5.20;84.80;;;;;;7369716;19;20131;-45
2022/01/09 01:02:27;;;;;;;0.68;0.40;;;5.30;84.70;;;;;;7365651;19;20171;-45
2022/01/09 01:04:56;;;;;;;0.30;0.30;;;5.30;84.30;;;;;;7369030;19;20239;-45
2022/01/09 01:07:29;;;;;;;1.02;0.30;;;5.30;84.50;;;;;;7368814;19;20156;-45
2022/01/09 01:09:59;;;;;;;0.30;0.30;;;5.30;85.00;;;;;;7374032;19;20199;-45
2022/01/09 01:12:30;;;;;;;0.30;0.30;;;5.20;84.80;;;;;;7365848;19;20874;-45
2022/01/09 01:15:00;;;;;;;0.25;0.25;;;5.30;84.70;;;;;;7367446;19;20155;-45
2022/01/09 01:17:30;;;;;;;0.80;0.50;;;5.30;84.30;;;;;;7371925;19;20131;-45
2022/01/09 01:19:59;;;;;;;0.30;0.30;;;5.30;85.60;;;;;;7374358;19;20529;-45
2022/01/09 01:22:32;;;;;;;0.40;0.40;;;5.30;83.80;;;;;;7371758;19;20148;-45
2022/01/09 01:25:03;;;;;;;0.30;0.30;;;5.30;84.40;;;;;;7375379;19;20497;-44
2022/01/09 01:27:33;;;;;;;0.50;0.30;;;5.20;84.60;;;;;;7364032;19;20191;-45
2022/01/09 01:30:03;;;;;;;0.55;0.30;;;5.30;84.00;;;;;;7365961;19;20136;-45
2022/01/09 01:32:32;;;;;;;0.30;0.20;;;5.30;84.20;;;;;;7362172;19;20610;-45
2022/01/09 01:35:02;;;;;;;0.30;0.30;;;5.30;84.10;;;;;;7372021;19;20139;-45
2022/01/09 01:37:37;;;;;;;0.30;0.30;;;5.30;84.90;;;;;;7365842;19;20135;-45
2022/01/09 01:40:09;;;;;;;0.30;0.30;;;5.30;84.60;;;;;;7367879;19;20127;-44
2022/01/09 01:42:39;;;;;;;0.40;0.30;;;5.30;84.10;;;;;;7362246;19;20175;-45
2022/01/09 01:45:10;;;;;;;0.30;0.20;;;5.30;84.90;;;;;;7370731;19;20128;-45
2022/01/09 01:47:40;;;;;;;0.35;0.30;;;5.30;84.30;;;;;;7364788;19;20135;-45
2022/01/09 01:50:14;;;;;;;0.40;0.40;;;5.40;85.00;;;;;;7368955;19;20223;-45
2022/01/09 01:52:49;;;;;;;0.30;0.30;;;5.40;84.40;;;;;;7367844;19;20128;-43
2022/01/09 01:55:19;;;;;;;0.30;0.30;;;5.50;84.60;;;;;;7375484;19;20134;-44
2022/01/09 01:57:51;;;;;;;0.52;0.30;;;5.50;84.00;;;;;;7369306;19;20124;-44
2022/01/09 02:00:21;;;;;;;0.30;0.28;;;5.50;83.20;;;;;;7370107;19;20127;-45
2022/01/09 02:02:52;;;;;;;0.30;0.20;;;5.50;84.20;;;;;;7369131;19;20144;-44
2022/01/09 02:05:22;;;;;;;0.30;0.30;;;5.50;84.30;;;;;;7369962;19;20136;-45
2022/01/09 02:07:58;;;;;;;0.47;0.30;;;5.60;83.20;;;;;;7368883;19;20610;-45
2022/01/09 02:10:27;;;;;;;0.30;0.20;;;5.50;82.20;;;;;;7371322;19;20138;-44
2022/01/09 02:12:57;;;;;;;0.30;0.28;;;5.50;82.50;;;;;;7367935;19;20127;-43
2022/01/09 02:15:34;;;;;;;1.35;0.30;;;5.50;82.50;;;;;;7364068;19;20823;-44
2022/01/09 02:18:06;;;;;;;0.50;0.20;;;5.50;82.20;;;;;;7371669;19;20621;-44
2022/01/09 02:20:39;;;;;;;0.45;0.38;;;5.50;83.00;;;;;;7373589;19;20136;-44
2022/01/09 02:23:11;;;;;;;0.20;0.20;;;5.50;82.60;;;;;;7376727;19;20146;-44
2022/01/09 02:25:41;;;;;;;0.20;0.20;;;5.50;82.50;;;;;;7370047;19;20127;-44
2022/01/09 02:28:13;;;;;;;0.45;0.40;;;5.50;84.50;;;;;;7377331;19;20605;-44
2022/01/09 02:30:44;;;;;;;0.20;0.20;;;5.50;82.80;;;;;;7372407;19;20614;-44
2022/01/09 02:33:18;;;;;;;0.35;0.35;;;5.50;83.20;;;;;;7376342;19;20123;-44
2022/01/09 02:35:56;;;;;;;0.30;0.30;;;5.50;82.50;;;;;;7377044;19;20597;-44
2022/01/09 02:38:27;;;;;;;0.57;0.30;;;5.60;82.70;;;;;;7373474;19;20477;-44
2022/01/09 02:40:57;;;;;;;0.40;0.20;;;5.60;82.90;;;;;;7372256;19;20135;-44
2022/01/09 02:43:28;;;;;;;0.30;0.30;;;5.60;81.60;;;;;;7371855;19;20487;-45
2022/01/09 02:46:06;;;;;;;0.77;0.32;;;5.50;81.50;;;;;;7366626;19;20135;-44
2022/01/09 02:48:37;;;;;;;0.20;0.20;;;5.50;81.70;;;;;;7373791;19;20147;-44
2022/01/09 02:51:13;;;;;;;0.30;0.30;;;5.50;81.40;;;;;;7373625;19;20142;-44
2022/01/09 02:53:46;;;;;;;0.30;0.20;;;5.50;81.60;;;;;;7367637;19;20131;-44
2022/01/09 02:56:17;;;;;;;0.30;0.30;;;5.40;81.60;;;;;;7379129;19;20498;-44
2022/01/09 02:58:46;;;;;;;1.65;0.30;;;5.30;82.00;;;;;;7375496;19;20138;-44
2022/01/09 03:01:16;;;;;;;0.88;0.30;;;5.30;81.60;;;;;;7366169;19;20199;-44
2022/01/09 03:03:48;;;;;;;1.55;0.30;;;5.30;81.70;;;;;;7371072;19;20480;-44
2022/01/09 03:06:20;;;;;;;0.30;0.30;;;5.30;82.10;;;;;;7374585;19;20160;-43
2022/01/09 03:08:49;;;;;;;0.30;0.20;;;5.30;82.30;;;;;;7379060;19;20475;-44
2022/01/09 03:11:19;;;;;;;0.30;0.20;;;5.30;81.80;;;;;;7366482;19;20167;-44
2022/01/09 03:13:49;;;;;;;1.00;0.40;;;5.40;81.40;;;;;;7368212;19;20135;-44
2022/01/09 03:16:18;;;;;;;0.60;0.40;;;5.40;81.40;;;;;;7370381;19;20123;-44
2022/01/09 03:18:48;;;;;;;0.60;0.60;;;5.40;81.80;;;;;;7374683;19;20497;-44
2022/01/09 03:21:20;;;;;;;1.33;1.05;;;5.50;80.80;;;;;;7373307;19;20606;-44
2022/01/09 03:23:49;;;;;;;1.00;0.90;;;5.50;81.10;;;;;;7373650;19;20135;-44
2022/01/09 03:26:19;;;;;;;0.90;0.68;;;5.50;81.10;;;;;;7376877;19;20606;-44
2022/01/09 03:28:48;;;;;;;1.95;1.35;;;5.60;81.20;;;;;;7372652;19;20744;-44
2022/01/09 03:31:18;;;;;;;1.20;0.80;;;5.60;81.10;;;;;;7368737;19;20142;-44
2022/01/09 03:33:47;;;;;;;1.25;1.10;;;5.60;81.00;;;;;;7372268;19;20150;-44
2022/01/09 03:36:20;;;;;;;0.73;0.43;;;5.60;80.40;;;;;;7375958;19;20533;-44
2022/01/09 03:38:49;;;;;;;0.80;0.80;;;5.60;81.30;;;;;;7374283;19;20135;-44
2022/01/09 03:41:19;;;;;;;1.05;0.90;;;5.60;81.60;;;;;;7362178;19;20131;-44
2022/01/09 03:43:48;;;;;;;0.40;0.40;;;5.60;82.80;;;;;;7370604;19;20131;-44
2022/01/09 03:46:18;;;;;;;0.38;0.30;;;5.60;81.50;;;;;;7373290;19;20135;-45
2022/01/09 03:48:47;;;;;;;0.40;0.40;;;5.60;81.30;;;;;;7366335;19;20504;-44
2022/01/09 03:51:21;;;;;;;2.00;0.60;;;5.60;81.50;;;;;;7371285;19;20128;-44
2022/01/09 03:53:51;;;;;;;0.30;0.30;;;5.60;81.50;;;;;;7371051;19;20127;-44
2022/01/09 03:56:22;;;;;;;0.30;0.30;;;5.60;81.50;;;;;;7373919;19;20147;-44
2022/01/09 03:58:52;;;;;;;0.32;0.30;;;5.60;81.30;;;;;;7377401;19;20131;-44
2022/01/09 04:01:21;;;;;;;0.30;0.20;;;5.70;81.50;;;;;;7375643;19;20491;-44
2022/01/09 04:03:52;;;;;;;0.40;0.30;;;5.60;80.60;;;;;;7368726;19;20593;-44
2022/01/09 04:06:25;;;;;;;0.30;0.30;;;5.70;81.30;;;;;;7372209;19;20147;-44
2022/01/09 04:08:56;;;;;;;0.50;0.40;;;5.60;81.10;;;;;;7370896;19;20176;-44
2022/01/09 04:11:28;;;;;;;0.30;0.30;;;5.60;81.70;;;;;;7366989;19;20630;-44
2022/01/09 04:13:57;;;;;;;0.50;0.30;;;5.70;81.60;;;;;;7374989;19;20646;-44
2022/01/09 04:16:29;;;;;;;0.20;0.20;;;5.80;81.50;;;;;;7367757;19;20774;-45
2022/01/09 04:19:01;;;;;;;0.32;0.32;;;5.80;81.00;;;;;;7374704;19;20130;-46
2022/01/09 04:21:33;;;;;;;0.35;0.35;;;5.90;81.10;;;;;;7369244;19;20817;-45
2022/01/09 04:24:03;;;;;;;0.30;0.25;;;5.80;80.50;;;;;;7369407;19;20139;-46
2022/01/09 04:26:32;;;;;;;1.00;0.38;;;5.80;81.50;;;;;;7371761;19;20542;-44
2022/01/09 04:29:02;;;;;;;0.38;0.30;;;5.90;82.00;;;;;;7373846;19;20520;-45
2022/01/09 04:31:31;;;;;;;0.45;0.35;;;5.80;82.10;;;;;;7366200;19;20146;-45
2022/01/09 04:34:01;;;;;;;0.95;0.40;;;5.80;81.00;;;;;;7370058;19;20158;-45
2022/01/09 04:36:33;;;;;;;0.30;0.30;;;5.80;81.60;;;;;;7371493;19;20124;-46
2022/01/09 04:39:05;;;;;;;0.40;0.20;;;5.80;81.90;;;;;;7372031;19;20135;-46
2022/01/09 04:41:34;;;;;;;0.40;0.30;;;5.90;82.60;;;;;;7368277;19;20123;-45
2022/01/09 04:44:04;;;;;;;0.75;0.40;;;5.90;82.00;;;;;;7370396;19;20699;-44
2022/01/09 04:46:41;;;;;;;0.57;0.50;;;5.90;81.80;;;;;;7371606;19;20496;-45
2022/01/09 04:49:10;;;;;;;0.32;0.32;;;5.80;82.60;;;;;;7364584;19;20139;-44
2022/01/09 04:51:42;;;;;;;0.40;0.30;;;5.90;83.70;;;;;;7367315;19;20128;-45
2022/01/09 04:54:12;;;;;;;0.38;0.30;;;5.90;82.50;;;;;;7373466;19;20139;-45
2022/01/09 04:56:41;;;;;;;0.30;0.30;;;5.90;81.50;;;;;;7372122;19;20618;-45
2022/01/09 04:59:11;;;;;;;0.85;0.30;;;5.90;82.70;;;;;;7370451;19;20135;-44
2022/01/09 05:01:40;;;;;;;0.60;0.30;;;5.90;82.40;;;;;;7366129;19;20130;-45
2022/01/09 05:04:10;;;;;;;0.30;0.30;;;5.70;81.50;;;;;;7368101;19;20224;-43
2022/01/09 05:06:42;;;;;;;0.38;0.30;;;5.70;81.70;;;;;;7373477;19;20169;-45
2022/01/09 05:09:12;;;;;;;0.22;0.22;;;5.70;81.70;;;;;;7367758;19;20167;-45
2022/01/09 05:11:41;;;;;;;0.30;0.20;;;5.60;82.10;;;;;;7363669;19;20155;-45
2022/01/09 05:14:11;;;;;;;0.70;0.30;;;5.60;81.60;;;;;;7371282;19;20132;-45
2022/01/09 05:16:44;;;;;;;0.30;0.30;;;5.60;81.20;;;;;;7365652;19;20631;-45
2022/01/09 05:19:18;;;;;;;0.30;0.20;;;5.60;80.60;;;;;;7373216;19;20203;-45
2022/01/09 05:21:52;;;;;;;0.20;0.20;;;5.50;81.10;;;;;;7367107;19;20124;-46
2022/01/09 05:24:22;;;;;;;0.20;0.20;;;5.50;79.80;;;;;;7372049;19;20139;-45
2022/01/09 05:26:51;;;;;;;0.68;0.20;;;5.50;80.00;;;;;;7361324;19;20658;-44
2022/01/09 05:29:21;;;;;;;0.20;0.20;;;5.50;79.90;;;;;;7373899;19;20621;-45
2022/01/09 05:31:53;;;;;;;0.20;0.20;;;5.40;80.10;;;;;;7366982;19;20422;-44
2022/01/09 05:34:22;;;;;;;0.30;0.20;;;5.30;79.50;;;;;;7371494;19;20128;-45
2022/01/09 05:36:55;;;;;;;0.57;0.20;;;5.30;81.00;;;;;;7367497;19;20560;-45
2022/01/09 05:39:24;;;;;;;0.35;0.30;;;5.30;80.40;;;;;;7367951;19;20136;-45
2022/01/09 05:41:54;;;;;;;0.25;0.25;;;5.30;81.10;;;;;;7366404;19;20135;-35
2022/01/09 05:44:24;;;;;;;0.40;0.30;;;5.30;80.60;;;;;;7372982;19;20161;-35
2022/01/09 05:46:53;;;;;;;0.20;0.20;;;5.20;81.40;;;;;;7365170;19;20688;-34
2022/01/09 05:49:23;;;;;;;0.20;0.20;;;5.20;81.20;;;;;;7368879;19;20132;-34
2022/01/09 05:51:55;;;;;;;1.95;0.40;;;5.10;81.50;;;;;;7364857;19;20124;-35
2022/01/09 05:54:27;;;;;;;0.30;0.20;;;5.10;81.30;;;;;;7374022;19;21156;-34
2022/01/09 05:57:00;;;;;;;0.30;0.20;;;5.00;82.00;;;;;;7375903;19;20191;-34
2022/01/09 05:59:29;;;;;;;0.20;0.20;;;5.00;81.90;;;;;;7381671;19;20613;-34
2022/01/09 06:02:02;;;;;;;0.30;0.30;;;5.00;81.50;;;;;;7375369;19;20594;-33
2022/01/09 06:04:31;;;;;;;0.30;0.20;;;5.00;81.90;;;;;;7376942;19;20148;-34
2022/01/09 06:07:03;;;;;;;0.30;0.30;;;5.00;82.90;;;;;;7373512;19;20132;-34
2022/01/09 06:09:33;;;;;;;0.30;0.20;;;4.90;82.60;;;;;;7374575;19;20130;-34
2022/01/09 06:12:03;;;;;;;0.20;0.20;;;4.90;82.70;;;;;;7365259;19;20148;-35
2022/01/09 06:14:32;;;;;;;0.70;0.30;;;4.90;82.50;;;;;;7378674;19;20138;-35
2022/01/09 06:17:02;;;;;;;3.13;0.40;;;4.90;82.70;;;;;;7373390;19;20132;-35
2022/01/09 06:19:31;;;;;;;0.28;0.28;;;4.90;81.90;;;;;;7375893;19;20608;-45
2022/01/09 06:22:04;;;;;;;0.40;0.40;;;4.90;81.40;;;;;;7378929;19;20131;-45
2022/01/09 06:24:36;;;;;;;2.03;0.40;;;4.90;81.70;;;;;;7377287;19;20127;-46
2022/01/09 06:27:07;;;;;;;1.20;0.40;;;4.80;81.90;;;;;;7374174;19;20128;-45
2022/01/09 06:29:36;;;;;;;0.30;0.30;;;4.90;81.70;;;;;;7376372;19;20470;-45
2022/01/09 06:32:09;;;;;;;0.40;0.40;;;5.00;81.40;;;;;;7369494;19;20224;-45
2022/01/09 06:34:41;;;;;;;0.80;0.45;;;4.90;81.40;;;;;;7372560;19;20127;-46
2022/01/09 06:37:13;;;;;;;0.77;0.30;;;4.90;81.70;;;;;;7376310;19;20151;-46
2022/01/09 06:39:43;;;;;;;1.25;0.40;;;4.90;82.10;;;;;;7371519;19;20132;-46
2022/01/09 06:42:15;;;;;;;0.40;0.40;;;4.90;82.00;;;;;;7377623;19;20139;-46
2022/01/09 06:44:47;;;;;;;0.60;0.30;;;4.90;82.30;;;;;;7369564;19;20191;-45
2022/01/09 06:47:17;;;;;;;0.30;0.30;;;5.00;82.30;;;;;;7371256;19;20139;-45
2022/01/09 06:49:47;;;;;;;1.20;0.38;;;4.90;81.70;;;;;;7376979;19;20134;-45
2022/01/09 06:52:22;;;;;;;0.30;0.30;;;4.90;81.90;;;;;;7374293;19;20140;-45
2022/01/09 06:54:51;;;;;;;0.50;0.30;;;4.90;82.70;;;;;;7371563;19;20119;-45
2022/01/09 06:57:21;;;;;;;0.40;0.30;;;4.90;83.00;;;;;;7372693;19;20134;-45
2022/01/09 06:59:50;;;;;;;0.50;0.40;;;5.00;82.70;;;;;;7372048;19;20517;-45
2022/01/09 07:02:20;;;;;;;0.40;0.35;;;4.80;82.00;;;;;;7369840;19;20142;-45
2022/01/09 07:04:49;;;;;;;0.30;0.30;;;4.90;83.20;;;;;;7373693;19;20142;-45
2022/01/09 07:07:21;;;;;;;0.40;0.40;;;5.00;82.50;;;;;;7373599;19;20142;-45
2022/01/09 07:09:51;;;;;;;0.75;0.40;;;4.90;81.90;;;;;;7373761;19;20139;-45
2022/01/09 07:12:21;;;;;;;0.35;0.35;;;4.70;82.70;;;;;;7369495;19;20239;-44
2022/01/09 07:14:50;;;;;;;0.30;0.30;;;4.70;83.30;;;;;;7373482;19;20140;-44
2022/01/09 07:17:22;;;;;;;1.05;0.40;;;4.70;82.50;;;;;;7373699;19;20143;-45
2022/01/09 07:19:52;;;;;;;0.30;0.30;;;4.70;82.60;;;;;;7377760;19;20232;-34
2022/01/09 07:22:24;;;;;;;0.70;0.30;;;4.70;82.40;;;;;;7376072;19;20124;-35
2022/01/09 07:24:53;;;;;;;0.70;0.70;;;4.70;82.90;;;;;;7373557;19;20199;-34
2022/01/09 07:27:23;;;;;;;0.30;0.30;;;4.70;82.90;;;;;;7372869;19;20160;-34
2022/01/09 07:29:52;;;;;;;0.52;0.52;;;4.70;82.40;;;;;;7368875;19;20134;-34
2022/01/09 07:32:22;;;;;;;0.50;0.40;;;4.70;82.00;;;;;;7374925;19;20132;-34
2022/01/09 07:34:53;;;;;;;0.40;0.40;;;4.70;80.90;;;;;;7370630;19;20472;-34
2022/01/09 07:37:30;;;;;;;0.40;0.40;;;4.60;81.90;;;;;;7373717;19;20184;-34
2022/01/09 07:39:59;;;;;;;1.00;0.50;;;4.60;81.30;;;;;;7372935;19;20610;-34
2022/01/09 07:42:29;;;;;;;1.90;0.65;;;4.60;81.70;;;;;;7371173;19;20786;-35
2022/01/09 07:44:59;;;;;;;1.77;1.17;;;4.60;81.20;;;;;;7372743;19;20161;-33
2022/01/09 07:47:29;;;;;;;1.67;0.90;;;4.70;81.50;;;;;;7362398;19;20167;-33
2022/01/09 07:49:58;;;;;;;1.73;1.10;;;4.80;80.50;;;;;;7372440;19;20218;-45
2022/01/09 07:52:34;;;;;;;3.45;1.00;;;4.80;79.90;;;;;;7369938;19;20138;-45
2022/01/09 07:55:03;;;;;;;4.65;1.15;;;4.90;79.60;;;;;;7373733;19;20222;-45
2022/01/09 07:57:33;;;;;;;1.00;0.82;;;4.90;78.80;;;;;;7368356;19;20135;-45
2022/01/09 08:00:03;;;;;;;3.15;0.93;;;4.90;79.20;;;;;;7370303;19;20602;-45
2022/01/09 08:02:45;;;;;;;1.85;0.80;;;4.90;78.90;;;;;;7370923;19;20124;-45
2022/01/09 08:05:16;;;;;;;3.60;1.40;;;5.00;78.90;;;;;;7372342;19;20132;-45
2022/01/09 08:07:50;;;;;;;1.75;1.15;;;5.10;78.30;;;;;;7376799;19;20138;-45
2022/01/09 08:10:20;;;;;;;4.63;1.20;;;5.10;77.60;;;;;;7366860;19;20243;-45
2022/01/09 08:12:49;;;;;;;1.88;1.15;;;5.10;77.00;;;;;;7367880;19;20135;-45
2022/01/09 08:15:19;;;;;;;2.22;1.15;;;5.20;75.70;;;;;;7371437;19;20134;-45
2022/01/09 08:17:49;;;;;;;3.03;1.27;;;5.30;75.20;;;;;;7365095;19;20503;-45
2022/01/09 08:20:19;;;;;;;1.17;0.85;;;5.20;75.30;;;;;;7375825;19;20487;-34
2022/01/09 08:22:52;;;;;;;6.38;1.25;;;5.30;75.20;;;;;;7371485;19;20236;-34
2022/01/09 08:25:21;;;;;;;0.93;0.85;;;5.30;74.00;;;;;;7372399;19;20127;-34
2022/01/09 08:27:51;;;;;;;3.97;1.38;;;5.30;73.50;;;;;;7366985;19;20144;-34
2022/01/09 08:30:21;;;;;;;3.45;1.15;;;5.40;71.90;;;;;;7370532;19;20127;-34
2022/01/09 08:32:54;;;;;;;2.53;0.88;;;5.40;73.30;;;;;;7368626;19;20134;-34
2022/01/09 08:35:25;;;;;;;2.38;1.00;;;5.40;72.10;;;;;;7374131;19;20138;-34
2022/01/09 08:37:57;;;;;;;3.30;1.17;;;5.50;71.90;;;;;;7361074;19;20150;-34
2022/01/09 08:40:26;;;;;;;5.28;1.30;;;5.50;71.50;;;;;;7371112;19;20143;-34
2022/01/09 08:42:56;;;;;;;4.53;1.05;;;5.50;71.30;;;;;;7374828;19;20136;-34
2022/01/09 08:45:26;;;;;;;2.03;0.85;;;5.60;70.20;;;;;;7368271;19;22404;-34
2022/01/09 08:47:55;;;;;;;3.65;1.67;;;5.60;70.10;;;;;;7365755;19;20246;-34
2022/01/09 08:50:25;;;;;;;4.75;1.20;;;5.70;69.70;;;;;;7367370;19;20127;-34
2022/01/09 08:52:57;;;;;;;2.17;1.02;;;5.70;69.50;;;;;;7372234;19;20131;-34
2022/01/09 08:55:27;;;;;;;2.42;1.00;;;5.70;69.50;;;;;;7374388;19;20135;-34
2022/01/09 08:57:57;;;;;;;4.13;1.25;;;5.80;68.20;;;;;;7361831;19;20682;-35
2022/01/09 09:00:26;;;;;;;0.95;0.93;;;5.90;67.00;;;;;;7362567;19;20915;-34
2022/01/09 09:02:56;;;;;;;5.10;1.52;;;5.90;68.00;;;;;;7362638;19;20760;-34
2022/01/09 09:05:26;;;;;;;3.50;1.10;;;5.90;66.20;;;;;;7372114;19;20123;-34
2022/01/09 09:07:58;;;;;;;2.35;1.27;;;5.90;64.90;;;;;;7372516;19;20138;-34
2022/01/09 09:10:28;;;;;;;3.63;1.48;;;5.90;65.30;;;;;;7372677;19;20144;-34
2022/01/09 09:12:58;;;;;;;5.72;1.80;;;5.90;65.90;;;;;;7364822;19;20119;-34
2022/01/09 09:15:27;;;;;;;5.88;1.70;;;5.90;66.50;;;;;;7374435;19;20124;-34
2022/01/09 09:17:59;;;;;;;10.55;1.35;;;6.00;66.20;;;;;;7366670;19;20124;-33
2022/01/09 09:20:29;;;;;;;3.22;0.98;;;6.00;66.80;;;;;;7370364;19;20131;-33
2022/01/09 09:23:01;;;;;;;3.90;1.38;;;6.00;66.90;;;;;;7371735;19;20626;-34
2022/01/09 09:25:31;;;;;;;3.22;0.85;;;6.10;68.10;;;;;;7367356;19;20127;-34
2022/01/09 09:28:00;;;;;;;3.70;1.30;;;5.70;67.40;;;;;;7368596;19;20157;-34
2022/01/09 09:30:30;;;;;;;3.33;1.42;;;6.20;67.90;;;;;;7379119;19;20911;-34
2022/01/09 09:33:00;;;;;;;2.60;1.00;;;;;;;;;;7380978;19;20128;-34
2022/01/09 09:35:30;;;;;;;5.95;1.77;;;;;;;;;;7379224;19;20596;-34
2022/01/09 09:38:02;;;;;;;6.22;1.58;;;6.30;68.70;;;;;;7379667;19;20130;-34
2022/01/09 09:40:32;;;;;;;11.32;1.40;;;6.80;65.20;;;;;;7381674;19;20124;-35
2022/01/09 09:43:02;;;;;;;8.55;1.20;;;6.70;66.60;;;;;;7376308;19;20131;-35
2022/01/09 09:45:32;;;;;;;3.53;1.13;;;6.50;66.60;;;;;;7375734;19;20131;-35
2022/01/09 09:48:04;;;;;;;4.60;1.55;;;6.50;67.40;;;;;;7375926;19;20147;-35
2022/01/09 09:50:33;;;;;;;5.32;1.33;;;6.40;68.50;;;;;;7373637;19;20179;-45
2022/01/09 09:53:05;;;;;;;4.95;1.20;;;6.40;70.10;;;;;;7379032;19;20124;-45
2022/01/09 09:55:35;;;;;;;4.70;1.35;;;6.40;71.70;;;;;;7378474;19;20861;-46
2022/01/09 09:58:05;;;;;;;8.48;1.88;;;6.40;71.20;;;;;;7377276;19;20127;-46
2022/01/09 10:00:35;;;;;;;3.92;1.60;;;6.40;71.90;;;;;;7376399;19;20735;-45
2022/01/09 10:03:07;;;;;;;8.82;1.60;;;6.60;70.50;;;;;;7376067;19;20195;-45
2022/01/09 10:05:38;;;;;;;3.40;1.55;;;6.80;69.50;;;;;;7369614;19;20127;-45
2022/01/09 10:08:12;;;;;;;1.98;1.15;;;7.00;68.50;;;;;;7376759;19;20223;-45
2022/01/09 10:10:42;;;;;;;1.33;1.00;;;7.00;68.40;;;;;;7371054;19;20146;-44
2022/01/09 10:13:13;;;;;;;5.22;1.45;;;7.00;68.30;;;;;;7373513;19;20281;-44
2022/01/09 10:15:49;;;;;;;2.85;1.85;;;7.00;68.20;;;;;;7370131;19;20604;-44
2022/01/09 10:18:40;;;;;;;3.80;1.25;;;7.20;67.00;;;;;;7375056;19;20138;-44
2022/01/09 10:21:14;;;;;;;8.13;1.70;;;7.30;66.90;;;;;;7376479;19;20535;-35
2022/01/09 10:24:02;;;;;;;3.15;0.80;;;7.30;66.60;;;;;;7375565;19;20123;-35
2022/01/09 10:26:33;;;;;;;7.03;1.20;;;7.20;66.20;;;;;;7371477;19;20139;-35
2022/01/09 10:29:07;;;;;;;4.40;0.82;;;7.10;66.60;;;;;;7368778;19;20756;-34
2022/01/09 10:31:44;;;;;;;2.50;1.13;;;7.00;66.90;;;;;;7371482;19;20143;-34
2022/01/09 10:34:17;;;;;;;2.42;1.00;;;7.00;67.30;;;;;;7373370;19;20834;-34
2022/01/09 10:36:51;;;;;;;4.47;1.50;;;7.10;67.10;;;;;;7373142;19;20156;-34
2022/01/09 10:39:31;;;;;;;4.70;1.30;;;7.10;67.30;;;;;;7369379;19;20135;-34
2022/01/09 10:42:03;;;;;;;3.60;1.25;;;;;;;;;;7372572;19;20188;-34
2022/01/09 10:44:35;;;;;;;4.55;1.10;;;;;;;;;;7365574;19;20175;-35
2022/01/09 10:47:05;;;;;;;3.78;1.02;;;;;;;;;;7370360;19;20227;-34
2022/01/09 10:49:39;;;;;;;4.13;1.33;;;;;;;;;;7370124;19;20538;-35
2022/01/09 10:52:19;;;;;;;3.17;1.23;;;;;;;;;;7371929;19;20132;-34
2022/01/09 10:54:52;;;;;;;4.75;1.40;;;;;;;;;;7368493;19;20135;-34
2022/01/09 10:57:23;;;;;;;5.90;1.08;;;;;;;;;;7376214;19;20518;-34
2022/01/09 10:59:53;;;;;;;8.25;2.75;;;;;;;;;;7370476;19;20135;-34
2022/01/09 11:02:23;;;;;;;2.60;1.30;;;;;;;;;;7370427;19;20618;-34
2022/01/09 11:04:53;;;;;;;2.38;1.27;;;;;;;;;;7373412;19;20135;-34
2022/01/09 11:07:24;;;;;;;5.35;1.88;;;;;;;;;;7376702;19;20646;-34
2022/01/09 11:09:58;;;;;;;3.60;2.00;;;;;;;;;;7378885;19;20836;-34
2022/01/09 11:12:34;;;;;;;2.00;1.02;;;;;;;;;;7365681;19;20633;-33
2022/01/09 11:15:05;;;;;;;5.05;1.70;;;7.40;68.00;;;;;;7365063;19;20170;-34
2022/01/09 11:17:35;;;;;;;2.05;0.93;;;;;;;;;;7372560;19;20142;-34
2022/01/09 11:20:05;;;;;;;2.77;1.27;;;;;;;;;;7370073;19;20132;-45
2022/01/09 11:22:34;;;;;;;3.03;1.30;;;;;;;;;;7371456;19;20404;-45
2022/01/09 11:25:14;;;;;;;6.00;1.57;;;;;;;;;;7376061;19;20405;-45
2022/01/09 11:27:50;;;;;;;4.53;0.93;;;;;;;;;;7371414;19;20405;-45
2022/01/09 11:30:22;;;;;;;3.30;1.20;;;;;;;;;;7367728;19;20726;-45
2022/01/09 11:33:00;;;;;;;5.90;1.30;;;;;;;;;;7371937;19;20387;-45
2022/01/09 11:35:40;;;;;;;2.50;1.30;;;10.10;60.00;;;;;;7364940;19;20364;-45
2022/01/09 11:38:13;;;;;;;4.10;1.30;;;;;;;;;;7371344;19;20397;-45
2022/01/09 11:40:46;;;;;;;3.33;1.13;;;;;;;;;;7367028;19;20375;-45
2022/01/09 11:43:19;;;;;;;1.60;0.77;;;;;;;;;;7369856;19;20827;-45
2022/01/09 11:45:50;;;;;;;1.53;0.90;;;;;;;;;;7359062;19;20475;-44
2022/01/09 11:48:21;;;;;;;1.07;0.90;;;;;;;;;;7370237;19;20392;-44
2022/01/09 11:51:09;;;;;;;1.70;1.10;;;;;;;;;;7371737;19;20380;-45
2022/01/09 11:53:53;;;;;;;2.80;0.87;;;;;;;;;;7365251;19;20372;-45
2022/01/09 11:56:40;;;;;;;3.40;1.10;;;;;;;;;;7371482;19;20435;-45
2022/01/09 11:59:32;;;;;;;2.77;1.03;;;8.70;59.90;;;;;;7369519;19;20388;-45
2022/01/09 12:02:03;;;;;;;4.13;1.00;;;8.60;58.30;;;;;;7364640;19;20380;-34
2022/01/09 12:04:54;;;;;;;3.70;1.40;;;8.40;59.30;;;;;;7369077;19;21381;-34
2022/01/09 12:08:09;;;;;;;2.97;1.20;;;8.40;60.00;;;;;;7372619;19;20376;-34
2022/01/09 12:10:56;;;;;;;2.00;1.00;;;8.30;59.40;;;;;;7360279;19;20813;-34
2022/01/09 12:13:44;;;;;;;5.77;3.03;;;8.10;59.10;;;;;;7361746;19;20967;-34
2022/01/09 12:16:43;;;;;;;3.83;1.60;;;8.20;60.80;;;;;;7369339;19;21005;-34
2022/01/09 12:19:15;;;;;;;5.60;1.20;;;;;;;;;;7370651;19;20748;-34
2022/01/09 12:21:52;;;;;;;3.38;1.20;;;;;;;;;;7369606;19;20407;-34
2022/01/09 12:24:37;;;;;;;2.53;1.23;;;;;;;;;;7372435;19;20127;-34
2022/01/09 12:27:21;;;;;;;3.95;1.30;;;;;;;;;;7369225;19;20139;-34
2022/01/09 12:29:51;;;;;;;3.53;1.55;;;;;;;;;;7359225;19;21457;-45
2022/01/09 12:32:38;;;;;;;4.30;1.85;;;;;;;;;;7368727;19;20618;-45
2022/01/09 12:35:19;;;;;;;1.83;1.30;;;8.50;59.70;;;;;;7361783;19;20578;-45
2022/01/09 12:37:48;;;;;;;2.20;1.03;;;8.40;59.60;;;;;;7370461;19;20137;-45
2022/01/09 12:40:19;;;;;;;1.05;0.85;;;8.50;58.90;;;;;;7369525;19;20360;-45
2022/01/09 12:42:51;;;;;;;7.97;1.85;;;8.60;58.60;;;;;;7367665;19;20625;-45
2022/01/09 12:45:22;;;;;;;6.28;2.58;;;8.60;58.80;;;;;;7367550;19;20140;-45
2022/01/09 12:47:52;;;;;;;4.00;1.63;;;8.50;59.00;;;;;;7364005;19;20158;-46
2022/01/09 12:50:30;;;;;;;2.20;1.08;;;8.50;58.40;;;;;;7371702;19;20707;-45
2022/01/09 12:53:16;;;;;;;3.13;1.20;;;8.40;58.50;;;;;;7361908;19;20131;-45
2022/01/09 12:55:56;;;;;;;2.20;0.90;;;8.30;59.30;;;;;;7372513;19;20376;-45
2022/01/09 12:58:30;;;;;;;1.95;0.90;;;8.30;59.50;;;;;;7371400;19;20918;-45
2022/01/09 13:01:01;;;;;;;2.58;1.27;;;8.10;60.00;;;;;;7373718;19;20135;-44
2022/01/09 13:03:34;;;;;;;3.63;1.13;;;8.00;60.50;;;;;;7370427;19;20132;-45
2022/01/09 13:06:08;;;;;;;2.55;0.98;;;8.00;60.50;;;;;;7371019;19;20391;-45
2022/01/09 13:08:41;;;;;;;3.50;1.05;;;7.90;59.30;;;;;;7367862;19;20492;-46
2022/01/09 13:11:12;;;;;;;3.67;1.08;;;7.80;59.40;;;;;;7356916;19;20197;-46
2022/01/09 13:13:44;;;;;;;4.30;1.10;;;7.70;59.70;;;;;;7369106;19;20179;-46
2022/01/09 13:16:15;;;;;;;4.40;1.35;;;7.70;59.90;;;;;;7372101;19;20166;-45
2022/01/09 13:18:46;;;;;;;1.40;0.60;;;7.60;60.00;;;;;;7344505;19;20194;-43
2022/01/09 13:21:21;;;;;;;2.45;1.10;;;7.60;61.70;;;;;;7366714;19;20138;-46
2022/01/09 13:23:59;;;;;;;1.30;0.80;;;7.60;62.60;;;;;;7369492;19;20601;-45
2022/01/09 13:26:31;;;;;;;1.60;0.85;;;7.40;64.30;;;;;;7368330;19;20127;-45
2022/01/09 13:29:04;;;;;;;2.88;1.15;;;7.30;65.50;;;;;;7371380;19;20135;-46
2022/01/09 13:31:53;;;;;;;3.15;1.02;;;7.20;65.60;;;;;;7367671;19;20605;-46
2022/01/09 13:34:31;;;;;;;3.60;1.00;;;7.20;65.30;;;;;;7369832;19;21682;-45